Austin, Texas
Traffic Map
Current Weather Conditions
Austin, Texas
Broken Clouds
Broken Clouds
37°
Feels Like: 38°
Wind Chill: 37° Ceiling: 7500
Heat Index: 38° Visibility: 10mi
Dew Point: 18° Wind: 3mph
Humidity: 34% Direction: ° ()
Pressure: 29.93in Gusts: 0mph
Raw Report DataKATT 172351Z AUTO VRB03KT 10SM BKN075 37/18 A2993 RMK AO2 SLP118 T03670183 10389 20344 55010
Traffic Incident Summary
Active as of:
Severity:
Category:
InformationThere was an issue retrieving the traffic information for this location. Please try a different location or try again shortly.
Advertisements